sensor_id;sensor_type;location;lat;lon;timestamp;P1;durP1;ratioP1;P2;durP2;ratioP2
7076;SDS011;3579;48.956;9.154;2023-08-31T00:01:10;1.50;;;1.37;;
7076;SDS011;3579;48.956;9.154;2023-08-31T00:03:37;1.33;;;1.20;;
7076;SDS011;3579;48.956;9.154;2023-08-31T00:06:03;1.30;;;1.20;;
7076;SDS011;3579;48.956;9.154;2023-08-31T00:08:32;1.30;;;1.20;;
7076;SDS011;3579;48.956;9.154;2023-08-31T00:10:59;1.50;;;1.40;;
7076;SDS011;3579;48.956;9.154;2023-08-31T00:13:31;1.50;;;1.40;;
7076;SDS011;3579;48.956;9.154;2023-08-31T00:15:58;1.43;;;1.33;;
7076;SDS011;3579;48.956;9.154;2023-08-31T00:18:25;1.40;;;1.27;;
7076;SDS011;3579;48.956;9.154;2023-08-31T00:20:51;1.40;;;1.30;;
7076;SDS011;3579;48.956;9.154;2023-08-31T00:23:17;1.40;;;1.30;;
7076;SDS011;3579;48.956;9.154;2023-08-31T00:25:44;1.60;;;1.40;;
7076;SDS011;3579;48.956;9.154;2023-08-31T00:28:13;1.30;;;1.20;;
7076;SDS011;3579;48.956;9.154;2023-08-31T00:30:41;1.37;;;1.27;;
7076;SDS011;3579;48.956;9.154;2023-08-31T00:33:07;1.53;;;1.43;;
7076;SDS011;3579;48.956;9.154;2023-08-31T00:35:33;1.67;;;1.30;;
7076;SDS011;3579;48.956;9.154;2023-08-31T00:38:00;1.30;;;1.20;;
7076;SDS011;3579;48.956;9.154;2023-08-31T00:40:27;1.40;;;1.30;;
7076;SDS011;3579;48.956;9.154;2023-08-31T00:43:05;1.30;;;1.20;;
7076;SDS011;3579;48.956;9.154;2023-08-31T00:45:31;1.50;;;1.20;;
7076;SDS011;3579;48.956;9.154;2023-08-31T00:47:57;1.30;;;1.20;;
7076;SDS011;3579;48.956;9.154;2023-08-31T00:50:23;1.50;;;1.40;;
7076;SDS011;3579;48.956;9.154;2023-08-31T00:52:49;1.50;;;1.30;;
7076;SDS011;3579;48.956;9.154;2023-08-31T00:55:15;1.40;;;1.30;;
7076;SDS011;3579;48.956;9.154;2023-08-31T00:57:43;1.20;;;1.10;;
7076;SDS011;3579;48.956;9.154;2023-08-31T01:00:10;1.40;;;1.30;;
7076;SDS011;3579;48.956;9.154;2023-08-31T01:02:40;1.70;;;1.50;;
7076;SDS011;3579;48.956;9.154;2023-08-31T01:05:21;1.50;;;1.30;;
7076;SDS011;3579;48.956;9.154;2023-08-31T01:13:18;1.20;;;1.10;;
7076;SDS011;3579;48.956;9.154;2023-08-31T01:15:50;1.53;;;1.40;;
7076;SDS011;3579;48.956;9.154;2023-08-31T01:18:21;1.47;;;1.37;;
7076;SDS011;3579;48.956;9.154;2023-08-31T01:23:23;1.60;;;1.30;;
7076;SDS011;3579;48.956;9.154;2023-08-31T01:26:14;1.73;;;1.40;;
7076;SDS011;3579;48.956;9.154;2023-08-31T01:28:40;1.60;;;1.40;;
7076;SDS011;3579;48.956;9.154;2023-08-31T01:31:06;1.20;;;1.10;;
7076;SDS011;3579;48.956;9.154;2023-08-31T01:33:32;1.40;;;1.30;;
7076;SDS011;3579;48.956;9.154;2023-08-31T01:35:58;1.40;;;1.30;;
7076;SDS011;3579;48.956;9.154;2023-08-31T01:38:28;1.47;;;1.30;;
7076;SDS011;3579;48.956;9.154;2023-08-31T01:41:01;1.30;;;1.20;;
7076;SDS011;3579;48.956;9.154;2023-08-31T01:43:31;1.50;;;1.30;;
7076;SDS011;3579;48.956;9.154;2023-08-31T01:45:59;1.30;;;1.20;;
7076;SDS011;3579;48.956;9.154;2023-08-31T01:48:26;1.37;;;1.27;;
7076;SDS011;3579;48.956;9.154;2023-08-31T01:50:52;1.40;;;1.30;;
7076;SDS011;3579;48.956;9.154;2023-08-31T01:53:18;1.67;;;1.33;;
7076;SDS011;3579;48.956;9.154;2023-08-31T01:55:44;1.37;;;1.27;;
7076;SDS011;3579;48.956;9.154;2023-08-31T01:58:10;1.60;;;1.50;;
7076;SDS011;3579;48.956;9.154;2023-08-31T02:00:36;1.47;;;1.30;;
7076;SDS011;3579;48.956;9.154;2023-08-31T02:03:04;1.40;;;1.30;;
7076;SDS011;3579;48.956;9.154;2023-08-31T02:05:30;1.43;;;1.33;;
7076;SDS011;3579;48.956;9.154;2023-08-31T02:07:56;1.40;;;1.30;;
7076;SDS011;3579;48.956;9.154;2023-08-31T02:10:22;1.40;;;1.30;;
7076;SDS011;3579;48.956;9.154;2023-08-31T02:12:48;1.50;;;1.40;;
7076;SDS011;3579;48.956;9.154;2023-08-31T02:15:14;1.30;;;1.20;;
7076;SDS011;3579;48.956;9.154;2023-08-31T02:17:40;1.40;;;1.30;;
7076;SDS011;3579;48.956;9.154;2023-08-31T02:20:06;1.40;;;1.30;;
7076;SDS011;3579;48.956;9.154;2023-08-31T02:22:34;1.60;;;1.50;;
7076;SDS011;3579;48.956;9.154;2023-08-31T02:25:03;1.30;;;1.20;;
7076;SDS011;3579;48.956;9.154;2023-08-31T02:27:29;1.40;;;1.30;;
7076;SDS011;3579;48.956;9.154;2023-08-31T02:29:55;1.50;;;1.30;;
7076;SDS011;3579;48.956;9.154;2023-08-31T02:32:21;1.40;;;1.30;;
7076;SDS011;3579;48.956;9.154;2023-08-31T02:34:47;1.50;;;1.30;;
7076;SDS011;3579;48.956;9.154;2023-08-31T02:37:14;1.40;;;1.30;;
7076;SDS011;3579;48.956;9.154;2023-08-31T02:39:40;1.20;;;1.10;;
7076;SDS011;3579;48.956;9.154;2023-08-31T02:42:06;1.50;;;1.40;;
7076;SDS011;3579;48.956;9.154;2023-08-31T02:44:33;1.33;;;1.23;;
7076;SDS011;3579;48.956;9.154;2023-08-31T02:46:59;1.30;;;1.20;;
7076;SDS011;3579;48.956;9.154;2023-08-31T02:49:25;1.20;;;1.10;;
7076;SDS011;3579;48.956;9.154;2023-08-31T02:51:51;1.33;;;1.23;;
7076;SDS011;3579;48.956;9.154;2023-08-31T02:54:17;1.50;;;1.40;;
7076;SDS011;3579;48.956;9.154;2023-08-31T02:56:44;1.53;;;1.37;;
7076;SDS011;3579;48.956;9.154;2023-08-31T02:59:11;1.30;;;1.20;;
7076;SDS011;3579;48.956;9.154;2023-08-31T03:01:37;1.30;;;1.20;;
7076;SDS011;3579;48.956;9.154;2023-08-31T03:04:04;1.30;;;1.20;;
7076;SDS011;3579;48.956;9.154;2023-08-31T03:06:33;1.40;;;1.30;;
7076;SDS011;3579;48.956;9.154;2023-08-31T03:08:59;1.47;;;1.37;;
7076;SDS011;3579;48.956;9.154;2023-08-31T03:11:27;1.30;;;1.20;;
7076;SDS011;3579;48.956;9.154;2023-08-31T03:13:53;1.63;;;1.20;;
7076;SDS011;3579;48.956;9.154;2023-08-31T03:16:19;1.43;;;1.30;;
7076;SDS011;3579;48.956;9.154;2023-08-31T03:18:45;1.37;;;1.27;;
7076;SDS011;3579;48.956;9.154;2023-08-31T03:21:11;1.50;;;1.40;;
7076;SDS011;3579;48.956;9.154;2023-08-31T03:23:37;1.17;;;1.07;;
7076;SDS011;3579;48.956;9.154;2023-08-31T03:26:07;1.30;;;1.20;;
7076;SDS011;3579;48.956;9.154;2023-08-31T03:28:33;1.40;;;1.30;;
7076;SDS011;3579;48.956;9.154;2023-08-31T03:30:59;1.50;;;1.40;;
7076;SDS011;3579;48.956;9.154;2023-08-31T03:33:26;1.40;;;1.30;;
7076;SDS011;3579;48.956;9.154;2023-08-31T03:35:59;1.30;;;1.20;;
7076;SDS011;3579;48.956;9.154;2023-08-31T03:38:26;1.10;;;1.00;;
7076;SDS011;3579;48.956;9.154;2023-08-31T03:40:53;1.50;;;1.40;;
7076;SDS011;3579;48.956;9.154;2023-08-31T03:43:23;1.27;;;1.17;;
7076;SDS011;3579;48.956;9.154;2023-08-31T03:45:53;1.33;;;1.23;;
7076;SDS011;3579;48.956;9.154;2023-08-31T03:48:21;1.23;;;1.13;;
7076;SDS011;3579;48.956;9.154;2023-08-31T03:50:54;1.20;;;1.10;;
7076;SDS011;3579;48.956;9.154;2023-08-31T03:53:20;1.40;;;1.30;;
7076;SDS011;3579;48.956;9.154;2023-08-31T03:55:46;1.40;;;1.30;;
7076;SDS011;3579;48.956;9.154;2023-08-31T03:58:12;1.30;;;1.20;;
7076;SDS011;3579;48.956;9.154;2023-08-31T04:00:38;1.40;;;1.30;;
7076;SDS011;3579;48.956;9.154;2023-08-31T04:03:05;1.33;;;1.23;;
7076;SDS011;3579;48.956;9.154;2023-08-31T04:05:34;1.30;;;1.20;;
7076;SDS011;3579;48.956;9.154;2023-08-31T04:08:00;1.23;;;1.13;;
7076;SDS011;3579;48.956;9.154;2023-08-31T04:10:27;1.30;;;1.20;;
7076;SDS011;3579;48.956;9.154;2023-08-31T04:12:55;1.20;;;1.10;;
7076;SDS011;3579;48.956;9.154;2023-08-31T04:15:21;1.40;;;1.30;;
7076;SDS011;3579;48.956;9.154;2023-08-31T04:17:47;1.23;;;1.13;;
7076;SDS011;3579;48.956;9.154;2023-08-31T04:20:15;1.20;;;1.10;;
7076;SDS011;3579;48.956;9.154;2023-08-31T04:22:41;1.30;;;1.20;;
7076;SDS011;3579;48.956;9.154;2023-08-31T04:25:07;1.40;;;1.30;;
7076;SDS011;3579;48.956;9.154;2023-08-31T04:27:33;1.20;;;1.10;;
7076;SDS011;3579;48.956;9.154;2023-08-31T04:30:02;1.20;;;1.10;;
7076;SDS011;3579;48.956;9.154;2023-08-31T04:32:29;1.77;;;1.30;;
7076;SDS011;3579;48.956;9.154;2023-08-31T04:34:55;1.30;;;1.20;;
7076;SDS011;3579;48.956;9.154;2023-08-31T04:37:21;2.20;;;1.40;;
7076;SDS011;3579;48.956;9.154;2023-08-31T04:39:47;1.10;;;1.00;;
7076;SDS011;3579;48.956;9.154;2023-08-31T04:42:13;1.30;;;1.20;;
7076;SDS011;3579;48.956;9.154;2023-08-31T04:44:42;1.50;;;1.40;;
7076;SDS011;3579;48.956;9.154;2023-08-31T04:47:08;1.40;;;1.30;;
7076;SDS011;3579;48.956;9.154;2023-08-31T04:49:34;1.50;;;1.20;;
7076;SDS011;3579;48.956;9.154;2023-08-31T04:52:00;2.37;;;1.37;;
7076;SDS011;3579;48.956;9.154;2023-08-31T04:54:26;1.30;;;1.20;;
7076;SDS011;3579;48.956;9.154;2023-08-31T04:56:52;2.27;;;1.43;;
7076;SDS011;3579;48.956;9.154;2023-08-31T04:59:18;1.87;;;1.40;;
7076;SDS011;3579;48.956;9.154;2023-08-31T05:01:44;1.40;;;1.30;;
7076;SDS011;3579;48.956;9.154;2023-08-31T05:04:10;1.97;;;1.43;;
7076;SDS011;3579;48.956;9.154;2023-08-31T05:06:36;1.57;;;1.40;;
7076;SDS011;3579;48.956;9.154;2023-08-31T05:09:02;7.00;;;2.17;;
7076;SDS011;3579;48.956;9.154;2023-08-31T05:11:29;5.10;;;1.60;;
7076;SDS011;3579;48.956;9.154;2023-08-31T05:13:55;3.17;;;1.97;;
7076;SDS011;3579;48.956;9.154;2023-08-31T05:16:21;3.67;;;1.80;;
7076;SDS011;3579;48.956;9.154;2023-08-31T05:18:48;3.70;;;1.63;;
7076;SDS011;3579;48.956;9.154;2023-08-31T05:21:14;3.77;;;1.97;;
7076;SDS011;3579;48.956;9.154;2023-08-31T05:23:41;4.83;;;2.27;;
7076;SDS011;3579;48.956;9.154;2023-08-31T05:26:07;4.00;;;2.10;;
7076;SDS011;3579;48.956;9.154;2023-08-31T05:28:33;3.90;;;2.10;;
7076;SDS011;3579;48.956;9.154;2023-08-31T05:31:00;5.40;;;1.80;;
7076;SDS011;3579;48.956;9.154;2023-08-31T05:33:27;3.30;;;1.80;;
7076;SDS011;3579;48.956;9.154;2023-08-31T05:35:54;3.90;;;1.80;;
7076;SDS011;3579;48.956;9.154;2023-08-31T05:38:21;3.07;;;2.07;;
7076;SDS011;3579;48.956;9.154;2023-08-31T05:40:47;5.27;;;2.10;;
7076;SDS011;3579;48.956;9.154;2023-08-31T05:43:13;4.97;;;2.10;;
7076;SDS011;3579;48.956;9.154;2023-08-31T05:45:39;4.23;;;1.90;;
7076;SDS011;3579;48.956;9.154;2023-08-31T05:48:07;2.40;;;1.53;;
7076;SDS011;3579;48.956;9.154;2023-08-31T05:50:34;6.63;;;2.00;;
7076;SDS011;3579;48.956;9.154;2023-08-31T05:53:02;6.93;;;2.03;;
7076;SDS011;3579;48.956;9.154;2023-08-31T05:55:29;4.57;;;2.10;;
7076;SDS011;3579;48.956;9.154;2023-08-31T05:57:55;2.63;;;1.80;;
7076;SDS011;3579;48.956;9.154;2023-08-31T06:00:21;3.70;;;2.10;;
7076;SDS011;3579;48.956;9.154;2023-08-31T06:02:47;6.50;;;2.10;;
7076;SDS011;3579;48.956;9.154;2023-08-31T06:05:13;2.50;;;1.70;;
7076;SDS011;3579;48.956;9.154;2023-08-31T06:07:42;2.47;;;1.80;;
7076;SDS011;3579;48.956;9.154;2023-08-31T06:10:09;6.03;;;2.77;;
7076;SDS011;3579;48.956;9.154;2023-08-31T06:12:36;6.27;;;2.93;;
7076;SDS011;3579;48.956;9.154;2023-08-31T06:15:02;9.47;;;3.63;;
7076;SDS011;3579;48.956;9.154;2023-08-31T06:17:28;10.17;;;3.27;;
7076;SDS011;3579;48.956;9.154;2023-08-31T06:19:54;10.70;;;3.13;;
7076;SDS011;3579;48.956;9.154;2023-08-31T06:22:20;6.17;;;2.80;;
7076;SDS011;3579;48.956;9.154;2023-08-31T06:24:49;5.83;;;2.60;;
7076;SDS011;3579;48.956;9.154;2023-08-31T06:27:17;4.97;;;2.50;;
7076;SDS011;3579;48.956;9.154;2023-08-31T06:29:43;5.53;;;2.53;;
7076;SDS011;3579;48.956;9.154;2023-08-31T06:32:09;4.40;;;2.50;;
7076;SDS011;3579;48.956;9.154;2023-08-31T06:34:35;7.23;;;2.60;;
7076;SDS011;3579;48.956;9.154;2023-08-31T06:37:01;5.87;;;2.27;;
7076;SDS011;3579;48.956;9.154;2023-08-31T06:39:28;4.57;;;2.37;;
7076;SDS011;3579;48.956;9.154;2023-08-31T06:41:55;5.43;;;2.60;;
7076;SDS011;3579;48.956;9.154;2023-08-31T06:44:21;6.87;;;2.53;;
7076;SDS011;3579;48.956;9.154;2023-08-31T06:46:47;10.17;;;2.60;;
7076;SDS011;3579;48.956;9.154;2023-08-31T06:49:13;4.07;;;2.43;;
7076;SDS011;3579;48.956;9.154;2023-08-31T06:51:41;5.87;;;2.80;;
7076;SDS011;3579;48.956;9.154;2023-08-31T06:54:07;8.87;;;3.00;;
7076;SDS011;3579;48.956;9.154;2023-08-31T06:56:33;7.90;;;2.63;;
7076;SDS011;3579;48.956;9.154;2023-08-31T06:59:00;6.13;;;2.30;;
7076;SDS011;3579;48.956;9.154;2023-08-31T07:01:28;6.97;;;2.57;;
7076;SDS011;3579;48.956;9.154;2023-08-31T07:03:54;7.10;;;2.47;;
7076;SDS011;3579;48.956;9.154;2023-08-31T07:06:21;5.33;;;2.50;;
7076;SDS011;3579;48.956;9.154;2023-08-31T07:08:47;7.73;;;2.80;;
7076;SDS011;3579;48.956;9.154;2023-08-31T07:11:14;6.80;;;2.40;;
7076;SDS011;3579;48.956;9.154;2023-08-31T07:13:41;4.50;;;2.60;;
7076;SDS011;3579;48.956;9.154;2023-08-31T07:16:07;6.23;;;2.40;;
7076;SDS011;3579;48.956;9.154;2023-08-31T07:18:33;6.00;;;2.17;;
7076;SDS011;3579;48.956;9.154;2023-08-31T07:21:00;6.37;;;2.50;;
7076;SDS011;3579;48.956;9.154;2023-08-31T07:23:26;6.90;;;2.50;;
7076;SDS011;3579;48.956;9.154;2023-08-31T07:25:52;6.13;;;2.33;;
7076;SDS011;3579;48.956;9.154;2023-08-31T07:28:23;6.43;;;2.33;;
7076;SDS011;3579;48.956;9.154;2023-08-31T07:30:49;6.53;;;2.30;;
7076;SDS011;3579;48.956;9.154;2023-08-31T07:33:26;5.00;;;2.07;;
7076;SDS011;3579;48.956;9.154;2023-08-31T07:35:52;2.73;;;1.80;;
7076;SDS011;3579;48.956;9.154;2023-08-31T07:38:18;4.40;;;2.10;;
7076;SDS011;3579;48.956;9.154;2023-08-31T07:40:44;7.47;;;1.90;;
7076;SDS011;3579;48.956;9.154;2023-08-31T07:43:10;5.43;;;2.10;;
7076;SDS011;3579;48.956;9.154;2023-08-31T07:45:36;5.43;;;2.23;;
7076;SDS011;3579;48.956;9.154;2023-08-31T07:48:02;4.90;;;2.13;;
7076;SDS011;3579;48.956;9.154;2023-08-31T07:50:29;6.00;;;2.30;;
7076;SDS011;3579;48.956;9.154;2023-08-31T07:52:55;3.63;;;2.13;;
7076;SDS011;3579;48.956;9.154;2023-08-31T07:55:20;5.40;;;2.20;;
7076;SDS011;3579;48.956;9.154;2023-08-31T07:57:47;3.13;;;1.97;;
7076;SDS011;3579;48.956;9.154;2023-08-31T08:00:13;4.80;;;2.30;;
7076;SDS011;3579;48.956;9.154;2023-08-31T08:02:40;2.20;;;1.80;;
7076;SDS011;3579;48.956;9.154;2023-08-31T08:05:06;2.93;;;1.90;;
7076;SDS011;3579;48.956;9.154;2023-08-31T08:07:32;4.80;;;2.17;;
7076;SDS011;3579;48.956;9.154;2023-08-31T08:09:59;3.83;;;1.90;;
7076;SDS011;3579;48.956;9.154;2023-08-31T08:12:25;3.90;;;1.97;;
7076;SDS011;3579;48.956;9.154;2023-08-31T08:14:51;4.77;;;2.30;;
7076;SDS011;3579;48.956;9.154;2023-08-31T08:17:17;3.67;;;1.80;;
7076;SDS011;3579;48.956;9.154;2023-08-31T08:19:43;5.70;;;2.10;;
7076;SDS011;3579;48.956;9.154;2023-08-31T08:22:09;4.57;;;2.00;;
7076;SDS011;3579;48.956;9.154;2023-08-31T08:24:35;3.60;;;1.80;;
7076;SDS011;3579;48.956;9.154;2023-08-31T08:27:01;7.13;;;2.67;;
7076;SDS011;3579;48.956;9.154;2023-08-31T08:29:27;6.90;;;1.70;;
7076;SDS011;3579;48.956;9.154;2023-08-31T08:31:53;5.20;;;2.30;;
7076;SDS011;3579;48.956;9.154;2023-08-31T08:34:19;4.67;;;2.07;;
7076;SDS011;3579;48.956;9.154;2023-08-31T08:36:57;3.50;;;1.87;;
7076;SDS011;3579;48.956;9.154;2023-08-31T08:39:24;5.40;;;2.00;;
7076;SDS011;3579;48.956;9.154;2023-08-31T08:41:50;2.77;;;1.70;;
7076;SDS011;3579;48.956;9.154;2023-08-31T08:44:19;3.40;;;1.70;;
7076;SDS011;3579;48.956;9.154;2023-08-31T08:46:54;7.37;;;2.93;;
7076;SDS011;3579;48.956;9.154;2023-08-31T08:49:23;4.90;;;2.03;;
7076;SDS011;3579;48.956;9.154;2023-08-31T08:51:50;3.53;;;1.80;;
7076;SDS011;3579;48.956;9.154;2023-08-31T08:54:17;3.93;;;2.07;;
7076;SDS011;3579;48.956;9.154;2023-08-31T08:56:43;2.57;;;1.90;;
7076;SDS011;3579;48.956;9.154;2023-08-31T08:59:09;2.97;;;1.70;;
7076;SDS011;3579;48.956;9.154;2023-08-31T09:01:39;4.20;;;1.67;;
7076;SDS011;3579;48.956;9.154;2023-08-31T09:04:05;3.13;;;1.80;;
7076;SDS011;3579;48.956;9.154;2023-08-31T09:06:32;3.60;;;2.00;;
7076;SDS011;3579;48.956;9.154;2023-08-31T09:08:58;4.10;;;1.80;;
7076;SDS011;3579;48.956;9.154;2023-08-31T09:11:24;2.90;;;1.83;;
7076;SDS011;3579;48.956;9.154;2023-08-31T09:13:52;6.80;;;1.60;;
7076;SDS011;3579;48.956;9.154;2023-08-31T09:16:25;4.07;;;1.87;;
7076;SDS011;3579;48.956;9.154;2023-08-31T09:18:55;2.50;;;1.50;;
7076;SDS011;3579;48.956;9.154;2023-08-31T09:21:22;2.23;;;1.70;;
7076;SDS011;3579;48.956;9.154;2023-08-31T09:24:00;4.70;;;1.80;;
7076;SDS011;3579;48.956;9.154;2023-08-31T09:26:26;3.83;;;1.70;;
7076;SDS011;3579;48.956;9.154;2023-08-31T09:28:52;3.40;;;2.00;;
7076;SDS011;3579;48.956;9.154;2023-08-31T09:31:18;4.73;;;2.23;;
7076;SDS011;3579;48.956;9.154;2023-08-31T09:33:50;5.93;;;2.50;;
7076;SDS011;3579;48.956;9.154;2023-08-31T09:36:17;6.83;;;2.40;;
7076;SDS011;3579;48.956;9.154;2023-08-31T09:38:45;11.50;;;2.80;;
7076;SDS011;3579;48.956;9.154;2023-08-31T09:41:12;7.60;;;2.43;;
7076;SDS011;3579;48.956;9.154;2023-08-31T09:43:38;4.70;;;2.07;;
7076;SDS011;3579;48.956;9.154;2023-08-31T09:46:04;3.80;;;2.10;;
7076;SDS011;3579;48.956;9.154;2023-08-31T09:48:31;4.50;;;2.33;;
7076;SDS011;3579;48.956;9.154;2023-08-31T09:50:57;7.23;;;2.30;;
7076;SDS011;3579;48.956;9.154;2023-08-31T09:53:24;5.03;;;2.27;;
7076;SDS011;3579;48.956;9.154;2023-08-31T09:55:50;5.37;;;2.50;;
7076;SDS011;3579;48.956;9.154;2023-08-31T09:58:18;5.33;;;2.70;;
7076;SDS011;3579;48.956;9.154;2023-08-31T10:00:48;6.00;;;2.30;;
7076;SDS011;3579;48.956;9.154;2023-08-31T10:03:16;6.63;;;2.33;;
7076;SDS011;3579;48.956;9.154;2023-08-31T10:05:43;3.80;;;2.43;;
7076;SDS011;3579;48.956;9.154;2023-08-31T10:08:10;4.80;;;2.40;;
7076;SDS011;3579;48.956;9.154;2023-08-31T10:10:36;4.37;;;2.33;;
7076;SDS011;3579;48.956;9.154;2023-08-31T10:13:06;4.70;;;2.20;;
7076;SDS011;3579;48.956;9.154;2023-08-31T10:15:33;3.80;;;2.20;;
7076;SDS011;3579;48.956;9.154;2023-08-31T10:18:01;4.90;;;2.27;;
7076;SDS011;3579;48.956;9.154;2023-08-31T10:20:28;9.40;;;2.40;;
7076;SDS011;3579;48.956;9.154;2023-08-31T10:23:08;5.83;;;2.30;;
7076;SDS011;3579;48.956;9.154;2023-08-31T10:26:16;5.70;;;2.20;;
7076;SDS011;3579;48.956;9.154;2023-08-31T10:28:24;4.67;;;2.10;;
7076;SDS011;3579;48.956;9.154;2023-08-31T10:31:04;5.63;;;2.00;;
7076;SDS011;3579;48.956;9.154;2023-08-31T10:33:33;6.30;;;2.40;;
7076;SDS011;3579;48.956;9.154;2023-08-31T10:36:10;7.93;;;2.60;;
7076;SDS011;3579;48.956;9.154;2023-08-31T10:38:40;5.93;;;2.57;;
7076;SDS011;3579;48.956;9.154;2023-08-31T10:43:48;5.93;;;2.57;;
7076;SDS011;3579;48.956;9.154;2023-08-31T10:51:37;5.83;;;2.47;;
7076;SDS011;3579;48.956;9.154;2023-08-31T10:54:08;5.53;;;2.50;;
7076;SDS011;3579;48.956;9.154;2023-08-31T10:56:51;4.13;;;2.43;;
7076;SDS011;3579;48.956;9.154;2023-08-31T10:59:26;6.37;;;2.70;;
7076;SDS011;3579;48.956;9.154;2023-08-31T11:02:06;7.10;;;2.47;;
7076;SDS011;3579;48.956;9.154;2023-08-31T11:04:52;7.73;;;2.57;;
7076;SDS011;3579;48.956;9.154;2023-08-31T11:07:25;9.40;;;3.23;;
7076;SDS011;3579;48.956;9.154;2023-08-31T11:09:52;8.73;;;2.97;;
7076;SDS011;3579;48.956;9.154;2023-08-31T11:12:55;6.43;;;2.60;;
7076;SDS011;3579;48.956;9.154;2023-08-31T11:15:23;6.73;;;2.73;;
7076;SDS011;3579;48.956;9.154;2023-08-31T11:17:52;9.47;;;3.37;;
7076;SDS011;3579;48.956;9.154;2023-08-31T11:20:20;6.37;;;2.67;;
7076;SDS011;3579;48.956;9.154;2023-08-31T11:22:49;11.73;;;2.43;;
7076;SDS011;3579;48.956;9.154;2023-08-31T11:25:18;5.43;;;2.47;;
7076;SDS011;3579;48.956;9.154;2023-08-31T11:30:25;6.57;;;2.70;;
7076;SDS011;3579;48.956;9.154;2023-08-31T11:32:53;5.23;;;2.50;;
7076;SDS011;3579;48.956;9.154;2023-08-31T11:35:20;6.17;;;2.77;;
7076;SDS011;3579;48.956;9.154;2023-08-31T11:37:49;6.97;;;2.50;;
7076;SDS011;3579;48.956;9.154;2023-08-31T11:40:17;6.87;;;3.07;;
7076;SDS011;3579;48.956;9.154;2023-08-31T11:42:44;9.17;;;2.73;;
7076;SDS011;3579;48.956;9.154;2023-08-31T11:45:11;4.67;;;2.23;;
7076;SDS011;3579;48.956;9.154;2023-08-31T11:47:39;7.23;;;2.40;;
7076;SDS011;3579;48.956;9.154;2023-08-31T11:50:06;8.37;;;2.60;;
7076;SDS011;3579;48.956;9.154;2023-08-31T11:52:33;5.27;;;2.40;;
7076;SDS011;3579;48.956;9.154;2023-08-31T11:54:59;7.77;;;2.80;;
7076;SDS011;3579;48.956;9.154;2023-08-31T11:57:26;5.53;;;2.30;;
7076;SDS011;3579;48.956;9.154;2023-08-31T11:59:54;4.93;;;2.37;;
7076;SDS011;3579;48.956;9.154;2023-08-31T12:02:24;4.70;;;2.30;;
7076;SDS011;3579;48.956;9.154;2023-08-31T12:04:50;7.73;;;2.23;;
7076;SDS011;3579;48.956;9.154;2023-08-31T12:07:17;5.37;;;2.67;;
7076;SDS011;3579;48.956;9.154;2023-08-31T12:09:46;4.13;;;2.53;;
7076;SDS011;3579;48.956;9.154;2023-08-31T12:12:14;6.13;;;2.33;;
7076;SDS011;3579;48.956;9.154;2023-08-31T12:14:42;8.67;;;2.90;;
7076;SDS011;3579;48.956;9.154;2023-08-31T12:17:09;5.03;;;1.97;;
7076;SDS011;3579;48.956;9.154;2023-08-31T12:19:38;6.17;;;2.50;;
7076;SDS011;3579;48.956;9.154;2023-08-31T12:22:07;9.33;;;2.47;;
7076;SDS011;3579;48.956;9.154;2023-08-31T12:24:41;5.83;;;2.57;;
7076;SDS011;3579;48.956;9.154;2023-08-31T12:27:07;5.63;;;2.50;;
7076;SDS011;3579;48.956;9.154;2023-08-31T12:29:34;4.40;;;2.50;;
7076;SDS011;3579;48.956;9.154;2023-08-31T12:32:01;5.93;;;2.00;;
7076;SDS011;3579;48.956;9.154;2023-08-31T12:34:28;5.97;;;2.40;;
7076;SDS011;3579;48.956;9.154;2023-08-31T12:36:56;4.22;;;3.00;;
7076;SDS011;3579;48.956;9.154;2023-08-31T12:42:45;6.55;;;3.22;;
7076;SDS011;3579;48.956;9.154;2023-08-31T12:45:11;6.27;;;2.00;;
7076;SDS011;3579;48.956;9.154;2023-08-31T12:47:37;8.23;;;2.47;;
7076;SDS011;3579;48.956;9.154;2023-08-31T12:50:04;6.93;;;2.60;;
7076;SDS011;3579;48.956;9.154;2023-08-31T12:52:30;5.13;;;2.40;;
7076;SDS011;3579;48.956;9.154;2023-08-31T12:54:56;6.20;;;2.93;;
7076;SDS011;3579;48.956;9.154;2023-08-31T12:57:22;4.77;;;2.57;;
7076;SDS011;3579;48.956;9.154;2023-08-31T12:59:48;7.23;;;2.70;;
7076;SDS011;3579;48.956;9.154;2023-08-31T13:02:14;4.30;;;2.40;;
7076;SDS011;3579;48.956;9.154;2023-08-31T13:04:40;5.27;;;2.50;;
7076;SDS011;3579;48.956;9.154;2023-08-31T13:07:07;9.77;;;2.90;;
7076;SDS011;3579;48.956;9.154;2023-08-31T13:09:34;6.40;;;2.70;;
7076;SDS011;3579;48.956;9.154;2023-08-31T13:12:00;6.67;;;3.10;;
7076;SDS011;3579;48.956;9.154;2023-08-31T13:14:26;4.07;;;2.10;;
7076;SDS011;3579;48.956;9.154;2023-08-31T13:16:52;5.10;;;2.50;;
7076;SDS011;3579;48.956;9.154;2023-08-31T13:19:18;6.37;;;2.70;;
7076;SDS011;3579;48.956;9.154;2023-08-31T13:21:45;6.23;;;2.90;;
7076;SDS011;3579;48.956;9.154;2023-08-31T13:24:11;7.97;;;2.70;;
7076;SDS011;3579;48.956;9.154;2023-08-31T13:26:37;5.80;;;2.73;;
7076;SDS011;3579;48.956;9.154;2023-08-31T13:29:03;5.43;;;2.83;;
7076;SDS011;3579;48.956;9.154;2023-08-31T13:31:30;8.17;;;2.97;;
7076;SDS011;3579;48.956;9.154;2023-08-31T13:33:56;8.67;;;3.10;;
7076;SDS011;3579;48.956;9.154;2023-08-31T13:36:22;5.93;;;2.70;;
7076;SDS011;3579;48.956;9.154;2023-08-31T13:38:48;6.50;;;2.87;;
7076;SDS011;3579;48.956;9.154;2023-08-31T13:41:15;4.77;;;2.90;;
7076;SDS011;3579;48.956;9.154;2023-08-31T13:43:41;7.27;;;2.70;;
7076;SDS011;3579;48.956;9.154;2023-08-31T13:46:07;10.80;;;3.10;;
7076;SDS011;3579;48.956;9.154;2023-08-31T13:48:33;5.73;;;2.60;;
7076;SDS011;3579;48.956;9.154;2023-08-31T13:50:59;7.77;;;2.73;;
7076;SDS011;3579;48.956;9.154;2023-08-31T13:53:25;6.30;;;2.70;;
7076;SDS011;3579;48.956;9.154;2023-08-31T13:55:51;6.03;;;2.60;;
7076;SDS011;3579;48.956;9.154;2023-08-31T13:58:17;6.80;;;2.60;;
7076;SDS011;3579;48.956;9.154;2023-08-31T14:00:43;6.40;;;2.63;;
7076;SDS011;3579;48.956;9.154;2023-08-31T14:03:09;7.77;;;2.87;;
7076;SDS011;3579;48.956;9.154;2023-08-31T14:05:35;6.50;;;3.20;;
7076;SDS011;3579;48.956;9.154;2023-08-31T14:08:01;6.57;;;3.60;;
7076;SDS011;3579;48.956;9.154;2023-08-31T14:10:30;5.13;;;2.40;;
7076;SDS011;3579;48.956;9.154;2023-08-31T14:12:58;7.47;;;2.70;;
7076;SDS011;3579;48.956;9.154;2023-08-31T14:15:25;7.47;;;3.07;;
7076;SDS011;3579;48.956;9.154;2023-08-31T14:17:52;7.33;;;2.77;;
7076;SDS011;3579;48.956;9.154;2023-08-31T14:20:21;6.43;;;3.00;;
7076;SDS011;3579;48.956;9.154;2023-08-31T14:22:48;9.17;;;2.90;;
7076;SDS011;3579;48.956;9.154;2023-08-31T14:25:14;7.00;;;3.07;;
7076;SDS011;3579;48.956;9.154;2023-08-31T14:27:40;6.53;;;2.70;;
7076;SDS011;3579;48.956;9.154;2023-08-31T14:30:06;6.77;;;2.70;;
7076;SDS011;3579;48.956;9.154;2023-08-31T14:32:33;7.80;;;2.73;;
7076;SDS011;3579;48.956;9.154;2023-08-31T14:34:59;5.07;;;2.60;;
7076;SDS011;3579;48.956;9.154;2023-08-31T14:37:25;5.60;;;2.67;;
7076;SDS011;3579;48.956;9.154;2023-08-31T14:39:52;5.50;;;2.80;;
7076;SDS011;3579;48.956;9.154;2023-08-31T14:42:18;6.17;;;3.10;;
7076;SDS011;3579;48.956;9.154;2023-08-31T14:44:46;5.63;;;2.70;;
7076;SDS011;3579;48.956;9.154;2023-08-31T14:47:13;8.57;;;2.80;;
7076;SDS011;3579;48.956;9.154;2023-08-31T14:49:39;3.50;;;2.40;;
7076;SDS011;3579;48.956;9.154;2023-08-31T14:52:08;5.17;;;2.60;;
7076;SDS011;3579;48.956;9.154;2023-08-31T14:54:34;3.80;;;2.50;;
7076;SDS011;3579;48.956;9.154;2023-08-31T14:57:01;3.47;;;2.30;;
7076;SDS011;3579;48.956;9.154;2023-08-31T14:59:31;6.77;;;2.53;;
7076;SDS011;3579;48.956;9.154;2023-08-31T15:01:58;5.37;;;2.20;;
7076;SDS011;3579;48.956;9.154;2023-08-31T15:04:24;6.07;;;2.67;;
7076;SDS011;3579;48.956;9.154;2023-08-31T15:06:51;8.47;;;2.60;;
7076;SDS011;3579;48.956;9.154;2023-08-31T15:09:18;2.93;;;2.00;;
7076;SDS011;3579;48.956;9.154;2023-08-31T15:11:44;5.47;;;2.80;;
7076;SDS011;3579;48.956;9.154;2023-08-31T15:14:11;4.73;;;2.60;;
7076;SDS011;3579;48.956;9.154;2023-08-31T15:16:37;4.00;;;2.63;;
7076;SDS011;3579;48.956;9.154;2023-08-31T15:19:03;4.13;;;2.50;;
7076;SDS011;3579;48.956;9.154;2023-08-31T15:21:29;5.47;;;2.80;;
7076;SDS011;3579;48.956;9.154;2023-08-31T15:23:55;6.50;;;2.50;;
7076;SDS011;3579;48.956;9.154;2023-08-31T15:26:21;5.30;;;2.60;;
7076;SDS011;3579;48.956;9.154;2023-08-31T15:28:50;9.90;;;3.00;;
7076;SDS011;3579;48.956;9.154;2023-08-31T15:31:16;7.90;;;2.50;;
7076;SDS011;3579;48.956;9.154;2023-08-31T15:33:42;5.73;;;2.63;;
7076;SDS011;3579;48.956;9.154;2023-08-31T15:36:09;7.53;;;2.80;;
7076;SDS011;3579;48.956;9.154;2023-08-31T15:38:36;7.43;;;2.57;;